TFM - Tactical Decision Aid
ID: Runway Winds: CIG/VIS Threshold:

KCDR - Chadron Muni, NE, US

Updated at: 1232 UTC 23 Jun 2021
Latest TAF at: 1144 UTC 23 Jun 2021

TAF Board

Time1153Z 23/13Z 23/14Z 23/15Z 23/16Z 23/17Z 23/18Z 23/19Z 23/20Z 23/21Z 23/22Z 23/23Z 24/00Z 24/01Z>>
Type OBS PRVL PRVL PRVL PRVL PRVL PRVL PRVL PRVL PRVL PRVL PRVL PRVL PRVL
VIS 10 >6 >6 >6 >6 >6 >6 >6 >6 >6 >6 >6 >6 >6
CIG -- -- -- -- -- -- -- -- -- -- -- -- -- --
Cover CLR FEW FEW FEW FEW FEW SCT SCT SCT SCT SCT SCT SCT SCT
FltCat VFR VFR VFR VFR VFR VFR VFR VFR VFR VFR VFR VFR VFR VFR
WX -- -- -- -- -- -- -- -- -- SHRA VCTS SHRA VCTS SHRA VCTS SHRA VCTS SHRA VCTS
WDir VRB 200 200 200 200 200 270 270 270 260 260 260 260 260
WSpd 0 5 5 5 5 5 14 14 14 15 15 15 15 15
WGst -- -- -- -- -- -- -- -- -- 22 22 22 22 22

TDA Impact Legend

  None Marginal Slight Moderate High
Visibility (sm) >5 3≤X≤5 2≤X<3 0.5≤X<2 <0.5
Ceiling (100 ft) >30 10≤X≤30 7≤X<10 2≤X<7 <2
Wind Speed (kt) <15 15≤X<25 25≤X<30 ≥30
Wind Gust (kt) <15 15≤X<25 25≤X<35 ≥35
Weather No Wx Reported VCTS -TS,-FZRA TS,FZRA +TS,+FZRA
TAF
KCDR 231144Z 2312/2412 20005KT P6SM FEW150
  FM231800 27014KT P6SM SCT120
  FM232100 26015G22KT P6SM SHRA VCTS SCT100CB
  FM240130 05007KT P6SM BKN120


METAR
KCDR 231153Z AUTO 00000KT 10SM CLR 15/09 A2978 RMK AO2 SLP056 T01500089 10250 20150 53014
KCDR 231053Z AUTO 00000KT 10SM CLR 17/09 A2976 RMK AO2 SLP048 T01670089
KCDR 230953Z AUTO 32004KT 10SM CLR 21/09 A2974 RMK AO2 SLP035 T02110094

Radar Display
Forecast Discussion